sensor_id;sensor_type;location;lat;lon;timestamp;temperature;humidity
76293;DHT22;67256;51.154;4.164;2024-02-04T00:02:20;12.20;99.90
76293;DHT22;67256;51.154;4.164;2024-02-04T00:04:48;12.20;99.90
76293;DHT22;67256;51.154;4.164;2024-02-04T00:07:14;12.20;99.90
76293;DHT22;67256;51.154;4.164;2024-02-04T00:09:39;12.20;99.90
76293;DHT22;67256;51.154;4.164;2024-02-04T00:12:05;12.20;99.90
76293;DHT22;67256;51.154;4.164;2024-02-04T00:14:31;12.30;99.90
76293;DHT22;67256;51.154;4.164;2024-02-04T00:16:57;12.30;99.90
76293;DHT22;67256;51.154;4.164;2024-02-04T00:19:24;12.20;99.90
76293;DHT22;67256;51.154;4.164;2024-02-04T00:21:50;12.10;99.90
76293;DHT22;67256;51.154;4.164;2024-02-04T00:24:15;12.20;99.90
76293;DHT22;67256;51.154;4.164;2024-02-04T00:26:41;12.30;99.90
76293;DHT22;67256;51.154;4.164;2024-02-04T00:29:06;12.20;99.90
76293;DHT22;67256;51.154;4.164;2024-02-04T00:31:32;12.20;99.90
76293;DHT22;67256;51.154;4.164;2024-02-04T00:33:58;12.30;99.90
76293;DHT22;67256;51.154;4.164;2024-02-04T00:36:24;12.40;99.90
76293;DHT22;67256;51.154;4.164;2024-02-04T00:38:50;12.30;99.90
76293;DHT22;67256;51.154;4.164;2024-02-04T00:41:16;12.10;99.90
76293;DHT22;67256;51.154;4.164;2024-02-04T00:43:42;12.20;99.90
76293;DHT22;67256;51.154;4.164;2024-02-04T00:46:08;12.20;99.90
76293;DHT22;67256;51.154;4.164;2024-02-04T00:48:36;12.20;99.90
76293;DHT22;67256;51.154;4.164;2024-02-04T00:51:02;12.30;99.90
76293;DHT22;67256;51.154;4.164;2024-02-04T00:53:27;12.30;99.90
76293;DHT22;67256;51.154;4.164;2024-02-04T00:56:03;12.30;99.90
76293;DHT22;67256;51.154;4.164;2024-02-04T00:58:28;12.20;99.90
76293;DHT22;67256;51.154;4.164;2024-02-04T01:00:54;12.20;99.90
76293;DHT22;67256;51.154;4.164;2024-02-04T01:03:20;12.20;99.90
76293;DHT22;67256;51.154;4.164;2024-02-04T01:05:45;12.10;99.90
76293;DHT22;67256;51.154;4.164;2024-02-04T01:08:11;12.20;99.90
76293;DHT22;67256;51.154;4.164;2024-02-04T01:10:37;12.30;99.90
76293;DHT22;67256;51.154;4.164;2024-02-04T01:13:04;12.30;99.90
76293;DHT22;67256;51.154;4.164;2024-02-04T01:15:30;12.30;99.90
76293;DHT22;67256;51.154;4.164;2024-02-04T01:17:56;12.40;99.90
76293;DHT22;67256;51.154;4.164;2024-02-04T01:20:22;12.40;99.90
76293;DHT22;67256;51.154;4.164;2024-02-04T01:22:48;12.40;99.90
76293;DHT22;67256;51.154;4.164;2024-02-04T01:25:14;12.40;99.90
76293;DHT22;67256;51.154;4.164;2024-02-04T01:27:39;12.40;99.90
76293;DHT22;67256;51.154;4.164;2024-02-04T01:30:06;12.30;99.90
76293;DHT22;67256;51.154;4.164;2024-02-04T01:32:31;12.30;99.90
76293;DHT22;67256;51.154;4.164;2024-02-04T01:34:57;12.40;99.90
76293;DHT22;67256;51.154;4.164;2024-02-04T01:37:23;12.50;99.90
76293;DHT22;67256;51.154;4.164;2024-02-04T01:39:48;12.50;99.90
76293;DHT22;67256;51.154;4.164;2024-02-04T01:42:14;12.40;99.90
76293;DHT22;67256;51.154;4.164;2024-02-04T01:44:40;12.40;99.90
76293;DHT22;67256;51.154;4.164;2024-02-04T01:47:06;12.40;99.90
76293;DHT22;67256;51.154;4.164;2024-02-04T01:49:31;12.40;99.90
76293;DHT22;67256;51.154;4.164;2024-02-04T01:51:58;12.40;99.90
76293;DHT22;67256;51.154;4.164;2024-02-04T01:54:24;12.50;99.90
76293;DHT22;67256;51.154;4.164;2024-02-04T01:56:52;12.40;99.90
76293;DHT22;67256;51.154;4.164;2024-02-04T01:59:23;12.30;99.90
76293;DHT22;67256;51.154;4.164;2024-02-04T02:01:59;12.40;99.90
76293;DHT22;67256;51.154;4.164;2024-02-04T02:04:25;12.40;99.90
76293;DHT22;67256;51.154;4.164;2024-02-04T02:06:55;12.40;99.90
76293;DHT22;67256;51.154;4.164;2024-02-04T02:09:22;12.50;99.90
76293;DHT22;67256;51.154;4.164;2024-02-04T02:11:53;12.40;99.90
76293;DHT22;67256;51.154;4.164;2024-02-04T02:14:24;12.40;99.90
76293;DHT22;67256;51.154;4.164;2024-02-04T02:16:56;12.50;99.90
76293;DHT22;67256;51.154;4.164;2024-02-04T02:19:46;12.60;99.90
76293;DHT22;67256;51.154;4.164;2024-02-04T02:22:32;12.50;99.90
76293;DHT22;67256;51.154;4.164;2024-02-04T02:25:04;12.50;99.90
76293;DHT22;67256;51.154;4.164;2024-02-04T02:27:30;12.50;99.90
76293;DHT22;67256;51.154;4.164;2024-02-04T02:29:56;12.50;99.90
76293;DHT22;67256;51.154;4.164;2024-02-04T02:32:22;12.50;99.90
76293;DHT22;67256;51.154;4.164;2024-02-04T02:34:48;12.50;99.90
76293;DHT22;67256;51.154;4.164;2024-02-04T02:37:33;12.40;99.90
76293;DHT22;67256;51.154;4.164;2024-02-04T02:42:38;12.50;99.90
76293;DHT22;67256;51.154;4.164;2024-02-04T02:45:08;12.50;99.90
76293;DHT22;67256;51.154;4.164;2024-02-04T02:47:35;12.50;99.90
76293;DHT22;67256;51.154;4.164;2024-02-04T02:50:01;12.40;99.90
76293;DHT22;67256;51.154;4.164;2024-02-04T02:52:27;12.40;99.90
76293;DHT22;67256;51.154;4.164;2024-02-04T02:54:52;12.30;99.90
76293;DHT22;67256;51.154;4.164;2024-02-04T02:57:18;12.30;99.90
76293;DHT22;67256;51.154;4.164;2024-02-04T02:59:44;12.20;99.90
76293;DHT22;67256;51.154;4.164;2024-02-04T03:02:09;12.30;99.90
76293;DHT22;67256;51.154;4.164;2024-02-04T03:04:36;12.40;99.90
76293;DHT22;67256;51.154;4.164;2024-02-04T03:07:02;12.40;99.90
76293;DHT22;67256;51.154;4.164;2024-02-04T03:09:27;12.40;99.90
76293;DHT22;67256;51.154;4.164;2024-02-04T03:11:53;12.40;99.90
76293;DHT22;67256;51.154;4.164;2024-02-04T03:14:20;12.30;99.90
76293;DHT22;67256;51.154;4.164;2024-02-04T03:16:46;12.30;99.90
76293;DHT22;67256;51.154;4.164;2024-02-04T03:19:12;12.40;99.90
76293;DHT22;67256;51.154;4.164;2024-02-04T03:21:37;12.50;99.90
76293;DHT22;67256;51.154;4.164;2024-02-04T03:24:04;12.50;99.90
76293;DHT22;67256;51.154;4.164;2024-02-04T03:26:29;12.60;99.90
76293;DHT22;67256;51.154;4.164;2024-02-04T03:28:55;12.60;99.90
76293;DHT22;67256;51.154;4.164;2024-02-04T03:31:22;12.60;99.90
76293;DHT22;67256;51.154;4.164;2024-02-04T03:33:49;12.60;99.90
76293;DHT22;67256;51.154;4.164;2024-02-04T03:36:22;12.60;99.90
76293;DHT22;67256;51.154;4.164;2024-02-04T03:38:51;12.50;99.90
76293;DHT22;67256;51.154;4.164;2024-02-04T03:41:17;12.50;99.90
76293;DHT22;67256;51.154;4.164;2024-02-04T03:43:43;12.30;99.90
76293;DHT22;67256;51.154;4.164;2024-02-04T03:46:13;12.40;99.90
76293;DHT22;67256;51.154;4.164;2024-02-04T03:48:39;12.30;99.90
76293;DHT22;67256;51.154;4.164;2024-02-04T03:51:05;12.30;99.90
76293;DHT22;67256;51.154;4.164;2024-02-04T03:53:31;12.30;99.90
76293;DHT22;67256;51.154;4.164;2024-02-04T03:55:57;12.40;99.90
76293;DHT22;67256;51.154;4.164;2024-02-04T03:58:23;12.40;99.90
76293;DHT22;67256;51.154;4.164;2024-02-04T04:00:55;12.40;99.90
76293;DHT22;67256;51.154;4.164;2024-02-04T04:03:22;12.30;99.90
76293;DHT22;67256;51.154;4.164;2024-02-04T04:05:49;12.30;99.90
76293;DHT22;67256;51.154;4.164;2024-02-04T04:08:14;12.30;99.90
76293;DHT22;67256;51.154;4.164;2024-02-04T04:10:40;12.30;99.90
76293;DHT22;67256;51.154;4.164;2024-02-04T04:13:06;12.30;99.90
76293;DHT22;67256;51.154;4.164;2024-02-04T04:15:31;12.10;99.90
76293;DHT22;67256;51.154;4.164;2024-02-04T04:17:57;12.20;99.90
76293;DHT22;67256;51.154;4.164;2024-02-04T04:20:23;12.30;99.90
76293;DHT22;67256;51.154;4.164;2024-02-04T04:22:48;12.20;99.90
76293;DHT22;67256;51.154;4.164;2024-02-04T04:25:14;12.40;99.90
76293;DHT22;67256;51.154;4.164;2024-02-04T04:27:40;12.30;99.90
76293;DHT22;67256;51.154;4.164;2024-02-04T04:30:06;12.30;99.90
76293;DHT22;67256;51.154;4.164;2024-02-04T04:32:31;12.20;99.90
76293;DHT22;67256;51.154;4.164;2024-02-04T04:34:58;12.20;99.90
76293;DHT22;67256;51.154;4.164;2024-02-04T04:37:23;12.10;99.90
76293;DHT22;67256;51.154;4.164;2024-02-04T04:39:49;12.20;99.90
76293;DHT22;67256;51.154;4.164;2024-02-04T04:42:15;12.10;99.90
76293;DHT22;67256;51.154;4.164;2024-02-04T04:44:41;12.10;99.90
76293;DHT22;67256;51.154;4.164;2024-02-04T04:47:07;12.10;99.90
76293;DHT22;67256;51.154;4.164;2024-02-04T04:49:32;12.10;99.90
76293;DHT22;67256;51.154;4.164;2024-02-04T04:51:58;12.10;99.90
76293;DHT22;67256;51.154;4.164;2024-02-04T04:54:23;12.20;99.90
76293;DHT22;67256;51.154;4.164;2024-02-04T04:56:49;12.30;99.90
76293;DHT22;67256;51.154;4.164;2024-02-04T04:59:15;12.20;99.90
76293;DHT22;67256;51.154;4.164;2024-02-04T05:01:47;12.20;99.90
76293;DHT22;67256;51.154;4.164;2024-02-04T05:04:13;12.20;99.90
76293;DHT22;67256;51.154;4.164;2024-02-04T05:06:40;12.30;99.90
76293;DHT22;67256;51.154;4.164;2024-02-04T05:09:05;12.30;99.90
76293;DHT22;67256;51.154;4.164;2024-02-04T05:11:31;12.30;99.90
76293;DHT22;67256;51.154;4.164;2024-02-04T05:13:57;12.30;99.90
76293;DHT22;67256;51.154;4.164;2024-02-04T05:16:23;12.30;99.90
76293;DHT22;67256;51.154;4.164;2024-02-04T05:18:49;12.30;99.90
76293;DHT22;67256;51.154;4.164;2024-02-04T05:21:14;12.20;99.90
76293;DHT22;67256;51.154;4.164;2024-02-04T05:23:40;12.20;99.90
76293;DHT22;67256;51.154;4.164;2024-02-04T05:26:06;12.30;99.90
76293;DHT22;67256;51.154;4.164;2024-02-04T05:28:32;12.20;99.90
76293;DHT22;67256;51.154;4.164;2024-02-04T05:30:58;12.20;99.90
76293;DHT22;67256;51.154;4.164;2024-02-04T05:33:24;12.30;99.90
76293;DHT22;67256;51.154;4.164;2024-02-04T05:35:50;12.20;99.90
76293;DHT22;67256;51.154;4.164;2024-02-04T05:38:18;12.30;99.90
76293;DHT22;67256;51.154;4.164;2024-02-04T05:40:44;12.40;99.90
76293;DHT22;67256;51.154;4.164;2024-02-04T05:43:10;12.30;99.90
76293;DHT22;67256;51.154;4.164;2024-02-04T05:45:37;12.20;99.90
76293;DHT22;67256;51.154;4.164;2024-02-04T05:48:04;12.20;99.90
76293;DHT22;67256;51.154;4.164;2024-02-04T05:50:30;12.00;99.90
76293;DHT22;67256;51.154;4.164;2024-02-04T05:52:55;12.10;99.90
76293;DHT22;67256;51.154;4.164;2024-02-04T05:55:22;12.10;99.90
76293;DHT22;67256;51.154;4.164;2024-02-04T05:57:47;12.10;99.90
76293;DHT22;67256;51.154;4.164;2024-02-04T06:00:13;12.10;99.90
76293;DHT22;67256;51.154;4.164;2024-02-04T06:02:40;12.00;99.90
76293;DHT22;67256;51.154;4.164;2024-02-04T06:05:06;12.00;99.90
76293;DHT22;67256;51.154;4.164;2024-02-04T06:07:32;11.90;99.90
76293;DHT22;67256;51.154;4.164;2024-02-04T06:09:58;11.90;99.90
76293;DHT22;67256;51.154;4.164;2024-02-04T06:12:25;12.00;99.90
76293;DHT22;67256;51.154;4.164;2024-02-04T06:14:51;12.00;99.90
76293;DHT22;67256;51.154;4.164;2024-02-04T06:17:16;12.10;99.90
76293;DHT22;67256;51.154;4.164;2024-02-04T06:19:42;12.10;99.90
76293;DHT22;67256;51.154;4.164;2024-02-04T06:22:08;12.10;99.90
76293;DHT22;67256;51.154;4.164;2024-02-04T06:24:33;12.10;99.90
76293;DHT22;67256;51.154;4.164;2024-02-04T06:26:59;12.00;99.90
76293;DHT22;67256;51.154;4.164;2024-02-04T06:29:25;11.90;99.90
76293;DHT22;67256;51.154;4.164;2024-02-04T06:31:50;12.00;99.90
76293;DHT22;67256;51.154;4.164;2024-02-04T06:34:16;12.00;99.90
76293;DHT22;67256;51.154;4.164;2024-02-04T06:36:43;12.00;99.90
76293;DHT22;67256;51.154;4.164;2024-02-04T06:39:11;12.10;99.90
76293;DHT22;67256;51.154;4.164;2024-02-04T06:41:37;12.00;99.90
76293;DHT22;67256;51.154;4.164;2024-02-04T06:44:04;12.00;99.90
76293;DHT22;67256;51.154;4.164;2024-02-04T06:46:30;12.10;99.90
76293;DHT22;67256;51.154;4.164;2024-02-04T06:48:56;12.20;99.90
76293;DHT22;67256;51.154;4.164;2024-02-04T06:51:22;12.10;99.90
76293;DHT22;67256;51.154;4.164;2024-02-04T06:53:47;12.20;99.90
76293;DHT22;67256;51.154;4.164;2024-02-04T06:56:13;12.10;99.90
76293;DHT22;67256;51.154;4.164;2024-02-04T06:58:40;12.10;99.90
76293;DHT22;67256;51.154;4.164;2024-02-04T07:01:06;12.20;99.90
76293;DHT22;67256;51.154;4.164;2024-02-04T07:03:31;12.20;99.90
76293;DHT22;67256;51.154;4.164;2024-02-04T07:05:58;12.10;99.90
76293;DHT22;67256;51.154;4.164;2024-02-04T07:08:25;12.20;99.90
76293;DHT22;67256;51.154;4.164;2024-02-04T07:10:51;12.30;99.90
76293;DHT22;67256;51.154;4.164;2024-02-04T07:13:17;12.40;99.90
76293;DHT22;67256;51.154;4.164;2024-02-04T07:15:43;12.20;99.90
76293;DHT22;67256;51.154;4.164;2024-02-04T07:18:09;12.20;99.90
76293;DHT22;67256;51.154;4.164;2024-02-04T07:20:35;12.10;99.90
76293;DHT22;67256;51.154;4.164;2024-02-04T07:23:01;12.20;99.90
76293;DHT22;67256;51.154;4.164;2024-02-04T07:25:27;12.20;99.90
76293;DHT22;67256;51.154;4.164;2024-02-04T07:27:53;12.30;99.90
76293;DHT22;67256;51.154;4.164;2024-02-04T07:30:19;12.40;99.90
76293;DHT22;67256;51.154;4.164;2024-02-04T07:32:46;12.30;99.90
76293;DHT22;67256;51.154;4.164;2024-02-04T07:35:12;12.30;99.90
76293;DHT22;67256;51.154;4.164;2024-02-04T07:37:37;12.40;99.90
76293;DHT22;67256;51.154;4.164;2024-02-04T07:40:04;12.30;99.90
76293;DHT22;67256;51.154;4.164;2024-02-04T07:42:33;12.30;99.90
76293;DHT22;67256;51.154;4.164;2024-02-04T07:44:59;12.20;99.90
76293;DHT22;67256;51.154;4.164;2024-02-04T07:47:25;12.20;99.90
76293;DHT22;67256;51.154;4.164;2024-02-04T07:49:51;12.30;99.90
76293;DHT22;67256;51.154;4.164;2024-02-04T07:52:16;12.10;99.90
76293;DHT22;67256;51.154;4.164;2024-02-04T07:54:42;12.20;99.90
76293;DHT22;67256;51.154;4.164;2024-02-04T07:57:12;12.20;99.90
76293;DHT22;67256;51.154;4.164;2024-02-04T07:59:38;12.30;99.90
76293;DHT22;67256;51.154;4.164;2024-02-04T08:02:03;12.30;99.90
76293;DHT22;67256;51.154;4.164;2024-02-04T08:04:30;12.20;99.90
76293;DHT22;67256;51.154;4.164;2024-02-04T08:06:55;12.20;99.90
76293;DHT22;67256;51.154;4.164;2024-02-04T08:09:21;12.30;99.90
76293;DHT22;67256;51.154;4.164;2024-02-04T08:11:47;12.30;99.90
76293;DHT22;67256;51.154;4.164;2024-02-04T08:14:12;12.40;99.90
76293;DHT22;67256;51.154;4.164;2024-02-04T08:16:40;12.40;99.90
76293;DHT22;67256;51.154;4.164;2024-02-04T08:19:06;12.50;99.90
76293;DHT22;67256;51.154;4.164;2024-02-04T08:21:32;12.50;99.90
76293;DHT22;67256;51.154;4.164;2024-02-04T08:23:58;12.60;99.90
76293;DHT22;67256;51.154;4.164;2024-02-04T08:26:24;12.60;99.90
76293;DHT22;67256;51.154;4.164;2024-02-04T08:28:51;12.50;99.90
76293;DHT22;67256;51.154;4.164;2024-02-04T08:31:17;12.50;99.90
76293;DHT22;67256;51.154;4.164;2024-02-04T08:33:42;12.60;99.90
76293;DHT22;67256;51.154;4.164;2024-02-04T08:36:09;12.50;99.90
76293;DHT22;67256;51.154;4.164;2024-02-04T08:38:37;12.40;99.90
76293;DHT22;67256;51.154;4.164;2024-02-04T08:41:04;12.50;99.90
76293;DHT22;67256;51.154;4.164;2024-02-04T08:43:30;12.50;99.90
76293;DHT22;67256;51.154;4.164;2024-02-04T08:45:55;12.40;99.90
76293;DHT22;67256;51.154;4.164;2024-02-04T08:48:21;12.40;99.90
76293;DHT22;67256;51.154;4.164;2024-02-04T08:50:47;12.40;99.90
76293;DHT22;67256;51.154;4.164;2024-02-04T08:53:12;12.50;99.90
76293;DHT22;67256;51.154;4.164;2024-02-04T08:55:38;12.70;99.90
76293;DHT22;67256;51.154;4.164;2024-02-04T08:58:04;12.70;99.90
76293;DHT22;67256;51.154;4.164;2024-02-04T09:00:30;12.60;99.90
76293;DHT22;67256;51.154;4.164;2024-02-04T09:02:56;12.60;99.90
76293;DHT22;67256;51.154;4.164;2024-02-04T09:05:22;12.60;99.90
76293;DHT22;67256;51.154;4.164;2024-02-04T09:07:48;12.50;99.90
76293;DHT22;67256;51.154;4.164;2024-02-04T09:10:13;12.60;99.90
76293;DHT22;67256;51.154;4.164;2024-02-04T09:12:39;12.70;99.90
76293;DHT22;67256;51.154;4.164;2024-02-04T09:15:05;12.60;99.90
76293;DHT22;67256;51.154;4.164;2024-02-04T09:17:32;12.60;99.90
76293;DHT22;67256;51.154;4.164;2024-02-04T09:20:01;12.50;99.90
76293;DHT22;67256;51.154;4.164;2024-02-04T09:22:27;12.60;99.90
76293;DHT22;67256;51.154;4.164;2024-02-04T09:24:54;12.60;99.90
76293;DHT22;67256;51.154;4.164;2024-02-04T09:27:19;12.70;99.90
76293;DHT22;67256;51.154;4.164;2024-02-04T09:29:45;12.80;99.90
76293;DHT22;67256;51.154;4.164;2024-02-04T09:32:11;12.70;99.90
76293;DHT22;67256;51.154;4.164;2024-02-04T09:34:36;12.70;99.90
76293;DHT22;67256;51.154;4.164;2024-02-04T09:37:02;12.70;99.90
76293;DHT22;67256;51.154;4.164;2024-02-04T09:39:28;12.80;99.90
76293;DHT22;67256;51.154;4.164;2024-02-04T09:41:55;12.80;99.90
76293;DHT22;67256;51.154;4.164;2024-02-04T09:44:23;12.70;99.90
76293;DHT22;67256;51.154;4.164;2024-02-04T09:46:49;12.70;99.90
76293;DHT22;67256;51.154;4.164;2024-02-04T09:49:15;12.70;99.90
76293;DHT22;67256;51.154;4.164;2024-02-04T09:51:41;12.70;99.90
76293;DHT22;67256;51.154;4.164;2024-02-04T09:54:09;12.70;99.90
76293;DHT22;67256;51.154;4.164;2024-02-04T09:56:38;12.70;99.90
76293;DHT22;67256;51.154;4.164;2024-02-04T09:59:04;12.80;99.90
76293;DHT22;67256;51.154;4.164;2024-02-04T10:01:31;12.90;99.90
76293;DHT22;67256;51.154;4.164;2024-02-04T10:03:58;12.90;99.80
76293;DHT22;67256;51.154;4.164;2024-02-04T10:06:24;13.00;99.70
76293;DHT22;67256;51.154;4.164;2024-02-04T10:08:50;13.00;99.60
76293;DHT22;67256;51.154;4.164;2024-02-04T10:11:16;13.10;99.60
76293;DHT22;67256;51.154;4.164;2024-02-04T10:13:49;13.20;99.30
76293;DHT22;67256;51.154;4.164;2024-02-04T10:16:16;13.20;99.40
76293;DHT22;67256;51.154;4.164;2024-02-04T10:18:46;13.20;99.40
76293;DHT22;67256;51.154;4.164;2024-02-04T10:21:19;13.20;99.20
76293;DHT22;67256;51.154;4.164;2024-02-04T10:23:47;13.40;99.20
76293;DHT22;67256;51.154;4.164;2024-02-04T10:26:12;13.30;99.20
76293;DHT22;67256;51.154;4.164;2024-02-04T10:28:38;13.40;99.00
76293;DHT22;67256;51.154;4.164;2024-02-04T10:31:09;13.40;98.90
76293;DHT22;67256;51.154;4.164;2024-02-04T10:33:36;13.40;98.90
76293;DHT22;67256;51.154;4.164;2024-02-04T10:36:02;13.40;98.90
76293;DHT22;67256;51.154;4.164;2024-02-04T10:38:28;13.40;98.90
76293;DHT22;67256;51.154;4.164;2024-02-04T10:40:54;13.40;99.10
76293;DHT22;67256;51.154;4.164;2024-02-04T10:43:24;13.40;99.00
76293;DHT22;67256;51.154;4.164;2024-02-04T10:45:56;13.40;98.90
76293;DHT22;67256;51.154;4.164;2024-02-04T10:48:25;13.40;99.00
76293;DHT22;67256;51.154;4.164;2024-02-04T10:50:54;13.40;99.00
76293;DHT22;67256;51.154;4.164;2024-02-04T10:53:22;13.40;98.90
76293;DHT22;67256;51.154;4.164;2024-02-04T10:55:49;13.40;98.90
76293;DHT22;67256;51.154;4.164;2024-02-04T10:58:17;13.40;98.90
76293;DHT22;67256;51.154;4.164;2024-02-04T11:00:44;13.40;99.00
76293;DHT22;67256;51.154;4.164;2024-02-04T11:03:11;13.60;98.80
76293;DHT22;67256;51.154;4.164;2024-02-04T11:05:39;13.70;98.40
76293;DHT22;67256;51.154;4.164;2024-02-04T11:08:08;13.70;98.60
76293;DHT22;67256;51.154;4.164;2024-02-04T11:10:37;13.70;98.50
76293;DHT22;67256;51.154;4.164;2024-02-04T11:13:05;13.80;98.50
76293;DHT22;67256;51.154;4.164;2024-02-04T11:15:35;13.80;98.10
76293;DHT22;67256;51.154;4.164;2024-02-04T11:21:39;13.80;98.10
76293;DHT22;67256;51.154;4.164;2024-02-04T11:26:43;14.00;97.90
76293;DHT22;67256;51.154;4.164;2024-02-04T11:29:10;13.80;98.00
76293;DHT22;67256;51.154;4.164;2024-02-04T11:31:38;13.70;98.40
76293;DHT22;67256;51.154;4.164;2024-02-04T11:34:04;13.80;98.50
76293;DHT22;67256;51.154;4.164;2024-02-04T11:36:38;13.80;97.90
76293;DHT22;67256;51.154;4.164;2024-02-04T11:39:13;13.60;98.40
76293;DHT22;67256;51.154;4.164;2024-02-04T11:41:47;13.60;98.70
76293;DHT22;67256;51.154;4.164;2024-02-04T11:44:19;13.80;98.40
76293;DHT22;67256;51.154;4.164;2024-02-04T11:46:49;13.70;98.30
76293;DHT22;67256;51.154;4.164;2024-02-04T11:49:18;13.70;98.50
76293;DHT22;67256;51.154;4.164;2024-02-04T11:51:50;13.80;98.00
76293;DHT22;67256;51.154;4.164;2024-02-04T11:54:20;13.90;97.90
76293;DHT22;67256;51.154;4.164;2024-02-04T11:56:51;13.90;97.90
76293;DHT22;67256;51.154;4.164;2024-02-04T11:59:21;13.90;97.90
76293;DHT22;67256;51.154;4.164;2024-02-04T12:01:48;13.80;98.20
76293;DHT22;67256;51.154;4.164;2024-02-04T12:04:16;13.80;98.10
76293;DHT22;67256;51.154;4.164;2024-02-04T12:06:42;13.70;98.40
76293;DHT22;67256;51.154;4.164;2024-02-04T12:09:08;13.50;98.50
76293;DHT22;67256;51.154;4.164;2024-02-04T12:11:36;13.50;98.60
76293;DHT22;67256;51.154;4.164;2024-02-04T12:14:04;13.60;98.50
76293;DHT22;67256;51.154;4.164;2024-02-04T12:16:31;13.70;98.20
76293;DHT22;67256;51.154;4.164;2024-02-04T12:18:58;13.60;98.40
76293;DHT22;67256;51.154;4.164;2024-02-04T12:21:25;13.80;98.20
76293;DHT22;67256;51.154;4.164;2024-02-04T12:23:51;13.80;98.20
76293;DHT22;67256;51.154;4.164;2024-02-04T12:26:17;13.90;97.90
76293;DHT22;67256;51.154;4.164;2024-02-04T12:28:43;13.90;97.80
76293;DHT22;67256;51.154;4.164;2024-02-04T12:31:19;14.00;97.70
76293;DHT22;67256;51.154;4.164;2024-02-04T12:33:58;14.00;97.80
76293;DHT22;67256;51.154;4.164;2024-02-04T12:36:28;14.00;97.70
76293;DHT22;67256;51.154;4.164;2024-02-04T12:38:58;13.90;98.10
76293;DHT22;67256;51.154;4.164;2024-02-04T12:41:26;14.00;98.00
76293;DHT22;67256;51.154;4.164;2024-02-04T12:43:54;14.00;97.80
76293;DHT22;67256;51.154;4.164;2024-02-04T12:46:20;14.00;97.90
76293;DHT22;67256;51.154;4.164;2024-02-04T12:48:54;13.90;98.00
76293;DHT22;67256;51.154;4.164;2024-02-04T12:51:30;13.80;98.00
76293;DHT22;67256;51.154;4.164;2024-02-04T12:54:22;13.80;97.80
76293;DHT22;67256;51.154;4.164;2024-02-04T12:56:52;14.00;97.80
76293;DHT22;67256;51.154;4.164;2024-02-04T12:59:29;13.90;97.70
76293;DHT22;67256;51.154;4.164;2024-02-04T13:01:59;13.80;97.80
76293;DHT22;67256;51.154;4.164;2024-02-04T13:04:26;13.80;98.10
76293;DHT22;67256;51.154;4.164;2024-02-04T13:06:52;13.70;98.30
76293;DHT22;67256;51.154;4.164;2024-02-04T13:09:18;13.60;98.60
76293;DHT22;67256;51.154;4.164;2024-02-04T13:11:45;13.50;98.60
76293;DHT22;67256;51.154;4.164;2024-02-04T13:14:11;13.60;98.80
76293;DHT22;67256;51.154;4.164;2024-02-04T13:16:38;13.70;98.40
76293;DHT22;67256;51.154;4.164;2024-02-04T13:19:04;13.70;98.50
76293;DHT22;67256;51.154;4.164;2024-02-04T13:21:30;13.70;98.20
76293;DHT22;67256;51.154;4.164;2024-02-04T13:23:56;13.60;98.60
76293;DHT22;67256;51.154;4.164;2024-02-04T13:26:22;13.80;98.40
76293;DHT22;67256;51.154;4.164;2024-02-04T13:28:48;13.70;98.10
76293;DHT22;67256;51.154;4.164;2024-02-04T13:31:14;13.80;98.30
76293;DHT22;67256;51.154;4.164;2024-02-04T13:33:40;13.80;98.30
76293;DHT22;67256;51.154;4.164;2024-02-04T13:36:07;13.80;98.20
76293;DHT22;67256;51.154;4.164;2024-02-04T13:38:34;13.80;98.30
76293;DHT22;67256;51.154;4.164;2024-02-04T13:41:00;13.80;98.30
76293;DHT22;67256;51.154;4.164;2024-02-04T13:43:25;13.80;98.20
76293;DHT22;67256;51.154;4.164;2024-02-04T13:45:52;13.70;98.30
76293;DHT22;67256;51.154;4.164;2024-02-04T13:48:17;13.70;98.60
76293;DHT22;67256;51.154;4.164;2024-02-04T13:50:44;13.70;98.30
76293;DHT22;67256;51.154;4.164;2024-02-04T13:53:10;13.70;98.60
76293;DHT22;67256;51.154;4.164;2024-02-04T13:55:37;13.70;98.30
76293;DHT22;67256;51.154;4.164;2024-02-04T13:58:03;13.80;98.30
76293;DHT22;67256;51.154;4.164;2024-02-04T14:00:29;13.80;98.00
76293;DHT22;67256;51.154;4.164;2024-02-04T14:02:55;13.70;98.10
76293;DHT22;67256;51.154;4.164;2024-02-04T14:05:21;13.70;98.50
76293;DHT22;67256;51.154;4.164;2024-02-04T14:07:46;13.60;98.30
76293;DHT22;67256;51.154;4.164;2024-02-04T14:10:12;13.60;98.40
76293;DHT22;67256;51.154;4.164;2024-02-04T14:12:40;13.50;98.50
76293;DHT22;67256;51.154;4.164;2024-02-04T14:15:09;13.60;98.60
76293;DHT22;67256;51.154;4.164;2024-02-04T14:17:35;13.70;98.20
76293;DHT22;67256;51.154;4.164;2024-02-04T14:20:01;13.80;98.00
76293;DHT22;67256;51.154;4.164;2024-02-04T14:22:26;13.80;97.90
76293;DHT22;67256;51.154;4.164;2024-02-04T14:24:53;13.90;97.60
76293;DHT22;67256;51.154;4.164;2024-02-04T14:27:19;13.90;97.60
76293;DHT22;67256;51.154;4.164;2024-02-04T14:29:44;14.00;97.30
76293;DHT22;67256;51.154;4.164;2024-02-04T14:32:10;14.10;96.70
76293;DHT22;67256;51.154;4.164;2024-02-04T14:34:36;14.00;97.10
76293;DHT22;67256;51.154;4.164;2024-02-04T14:37:01;13.90;97.50
76293;DHT22;67256;51.154;4.164;2024-02-04T14:39:27;13.90;97.50
76293;DHT22;67256;51.154;4.164;2024-02-04T14:41:53;13.80;97.50
76293;DHT22;67256;51.154;4.164;2024-02-04T14:44:20;13.90;97.30
76293;DHT22;67256;51.154;4.164;2024-02-04T14:46:46;13.70;97.40
76293;DHT22;67256;51.154;4.164;2024-02-04T14:49:13;13.70;97.30
76293;DHT22;67256;51.154;4.164;2024-02-04T14:51:39;13.60;97.40
76293;DHT22;67256;51.154;4.164;2024-02-04T14:54:04;13.80;97.20
76293;DHT22;67256;51.154;4.164;2024-02-04T14:56:30;13.90;97.00
76293;DHT22;67256;51.154;4.164;2024-02-04T14:58:56;13.90;96.70
76293;DHT22;67256;51.154;4.164;2024-02-04T15:01:22;13.80;96.90
76293;DHT22;67256;51.154;4.164;2024-02-04T15:03:47;13.70;96.80
76293;DHT22;67256;51.154;4.164;2024-02-04T15:06:13;13.70;97.00
76293;DHT22;67256;51.154;4.164;2024-02-04T15:08:38;13.70;97.00
76293;DHT22;67256;51.154;4.164;2024-02-04T15:11:04;13.80;96.80
76293;DHT22;67256;51.154;4.164;2024-02-04T15:13:30;13.80;96.70
76293;DHT22;67256;51.154;4.164;2024-02-04T15:15:57;13.80;96.90
76293;DHT22;67256;51.154;4.164;2024-02-04T15:18:23;13.90;96.70
76293;DHT22;67256;51.154;4.164;2024-02-04T15:20:48;13.90;96.50
76293;DHT22;67256;51.154;4.164;2024-02-04T15:23:15;13.90;96.60
76293;DHT22;67256;51.154;4.164;2024-02-04T15:25:41;13.80;96.80
76293;DHT22;67256;51.154;4.164;2024-02-04T15:28:11;13.80;96.90
76293;DHT22;67256;51.154;4.164;2024-02-04T15:30:38;13.70;97.20
76293;DHT22;67256;51.154;4.164;2024-02-04T15:33:04;13.50;97.20
76293;DHT22;67256;51.154;4.164;2024-02-04T15:35:30;13.50;97.40
76293;DHT22;67256;51.154;4.164;2024-02-04T15:37:56;13.50;97.40